Hlavní strana
METAR-TAF:

METAR-TAF

Letiště :

Mezinárodní letiště Oděsa

Oděsa, Ukrajina

zeměpisná šířka: 46-26N, zeměpisná délka: 030-46E, výška: 42 m

Aktuální stav počasí

Zpráva byla vytvořena před 21 hodinami a 35 minutami, v 00:00 UTC
Bezvětří
Teplota 17°C
Vlhkost vzduchu 59%
Tlak 1015 hPa
Viditelnost 10 km a více
Žádná oblačnost pod 1500 m, nevyskytují se cumulonimby.

METAR: UKOO 210000Z 00000MPS CAVOK 17/09 Q1015 R34/090060 NOSIG

Čas: 00:35 (21:35 UTC)

Předpověď počasí

Zpráva byla vytvořena před 22 hodinami a 27 minutami, v 23:08 UTC
Předpověď platná od 21 v 00 UTC do 21 v 24 UTC
Severoseverovýchodní vítr 6 kt
Viditelnost 10 km a více
Polojasno ve výšce 2500 ft, Cumulonimbus.
Dočasný
od 21 v 10 UTC do 21 v 18 UTC
Jižní vítr 6 kt s nárazy do 17 kt
Změna
od 21 v 18 UTC do 21 v 19 UTC
Západní vítr 6 kt

TAF: UKOO 202308Z 2100/2124 03003MPS 9999 SCT025CB TX30/2112Z TN16/2102Z TEMPO 2110/2118 17003G09MPS BECMG 2118/2119 26003MPS

Stav a předpovědi počasí z více než 4 000 letišť (zprávy METAR a TAF).

Červené a žluté tečky na mapě představují dostupné meteorologické stanice.

Když kurzor umístíte na tečku, zobrazí se název stanice.

Pak kliknutím zobrazíte stav a předpověď počasí.

Chcete-li změnit mapu, kliknutím na zelené tlačítko se znaménkem +mapu přiblížíte, kliknutím na zelené tlačítko se znaménkem – mapu oddálíte a kliknutím na zelené šipky přejdete na sousední mapy.


METAR-TAF: